Time;durP1;ratioP1;P1;durP2;ratioP2;P2;SDS_P1;SDS_P2;PMS_P1;PMS_P2;Temp;Humidity;BMP_temperature;BMP_pressure;BME280_temperature;BME280_humidity;BME280_pressure;Samples;Min_cycle;Max_cycle;Signal;HPM_P1;HPM_P2
2023/09/18 00:00:00;;;;;;;34.92;31.33;;;18.00;99.90;;;;;;5125389;27;20035;-62
2023/09/18 00:02:26;;;;;;;32.85;29.20;;;18.20;99.90;;;;;;5124650;27;20341;-62
2023/09/18 00:04:52;;;;;;;33.30;29.83;;;18.10;99.90;;;;;;5125304;27;20152;-61
2023/09/18 00:07:18;;;;;;;34.50;30.63;;;18.00;99.90;;;;;;5125117;27;20525;-61
2023/09/18 00:09:43;;;;;;;33.10;29.70;;;18.00;99.90;;;;;;5125505;27;20031;-62
2023/09/18 00:12:09;;;;;;;34.35;30.75;;;18.30;99.90;;;;;;5124525;27;20609;-61
2023/09/18 00:14:36;;;;;;;35.25;31.50;;;18.00;99.90;;;;;;5107121;27;20027;-62
2023/09/18 00:17:03;;;;;;;34.20;30.35;;;18.30;99.90;;;;;;5124296;27;20035;-62
2023/09/18 00:19:28;;;;;;;34.35;30.92;;;18.00;99.90;;;;;;5124569;27;20039;-61
2023/09/18 00:21:54;;;;;;;37.35;33.55;;;18.00;99.90;;;;;;5124825;27;20039;-61
2023/09/18 00:24:20;;;;;;;34.90;31.40;;;18.20;99.90;;;;;;5072628;27;20053;-62
2023/09/18 00:26:47;;;;;;;34.75;31.15;;;18.30;99.90;;;;;;5124124;27;20043;-61
2023/09/18 00:29:14;;;;;;;34.58;30.25;;;18.20;99.90;;;;;;5124425;27;20394;-61
2023/09/18 00:31:39;;;;;;;32.92;29.38;;;18.10;99.90;;;;;;5124220;27;20042;-61
2023/09/18 00:34:05;;;;;;;31.50;28.20;;;18.20;99.90;;;;;;5106485;27;20420;-62
2023/09/18 00:36:31;;;;;;;31.58;28.42;;;18.30;99.90;;;;;;5124578;27;20039;-62
2023/09/18 00:38:56;;;;;;;30.13;27.08;;;18.00;99.90;;;;;;5123476;27;20046;-61
2023/09/18 00:41:22;;;;;;;31.95;28.55;;;18.10;99.90;;;;;;5124290;27;20045;-61
2023/09/18 00:43:48;;;;;;;29.40;26.40;;;18.20;99.90;;;;;;5123877;27;20121;-61
2023/09/18 00:46:13;;;;;;;29.23;26.13;;;18.10;99.90;;;;;;5123721;27;20049;-61
2023/09/18 00:48:39;;;;;;;29.30;26.30;;;18.20;99.90;;;;;;5124408;27;20050;-62
2023/09/18 00:51:08;;;;;;;30.98;27.77;;;18.00;99.90;;;;;;5124162;27;20418;-61
2023/09/18 00:53:34;;;;;;;29.70;26.73;;;18.10;99.90;;;;;;5123563;27;20031;-62
2023/09/18 00:56:02;;;;;;;29.63;26.50;;;18.20;99.90;;;;;;5105245;28;20051;-61
2023/09/18 00:58:27;;;;;;;30.85;27.65;;;18.00;99.90;;;;;;5124573;27;20027;-61
2023/09/18 01:00:53;;;;;;;31.30;28.20;;;18.10;99.90;;;;;;5123799;27;20043;-61
2023/09/18 01:03:22;;;;;;;31.33;28.10;;;18.00;99.90;;;;;;5104067;27;20039;-61
2023/09/18 01:05:48;;;;;;;30.63;27.48;;;17.90;99.90;;;;;;5124115;27;20278;-61
2023/09/18 01:08:13;;;;;;;31.85;28.40;;;18.10;99.90;;;;;;5124011;27;20576;-61
2023/09/18 01:10:54;;;;;;;31.48;28.15;;;18.30;99.90;;;;;;5124001;27;20031;-62
2023/09/18 01:13:28;;;;;;;30.83;27.73;;;18.00;99.90;;;;;;5123778;27;20384;-61
2023/09/18 01:16:05;;;;;;;32.20;28.80;;;18.00;99.90;;;;;;5123854;27;20485;-62
2023/09/18 01:18:31;;;;;;;29.65;26.75;;;17.90;99.90;;;;;;5123483;27;20050;-62
2023/09/18 01:20:56;;;;;;;29.08;26.15;;;18.30;99.90;;;;;;5123638;27;20027;-61
2023/09/18 01:23:22;;;;;;;31.33;27.98;;;18.30;99.90;;;;;;5104416;28;20043;-61
2023/09/18 01:25:48;;;;;;;31.02;27.90;;;18.10;99.90;;;;;;5123445;28;20027;-62
2023/09/18 01:28:16;;;;;;;28.98;26.17;;;18.10;99.90;;;;;;5124779;27;20035;-62
2023/09/18 01:30:42;;;;;;;30.00;26.90;;;18.20;99.90;;;;;;5128115;27;20032;-61
2023/09/18 01:33:09;;;;;;;30.58;27.48;;;18.30;99.90;;;;;;5109898;27;20490;-61
2023/09/18 01:35:37;;;;;;;28.92;25.65;;;18.30;99.90;;;;;;5127059;27;20027;-62
2023/09/18 01:38:03;;;;;;;30.13;27.13;;;18.30;99.90;;;;;;5127798;27;20146;-61
2023/09/18 01:40:29;;;;;;;31.08;28.00;;;18.10;99.90;;;;;;5109080;27;20090;-61
2023/09/18 01:42:55;;;;;;;30.20;27.15;;;18.40;99.90;;;;;;5128177;27;20027;-61
2023/09/18 01:45:21;;;;;;;30.60;27.70;;;18.30;99.90;;;;;;5126941;27;20493;-62
2023/09/18 01:47:47;;;;;;;29.85;26.83;;;18.40;99.90;;;;;;5127455;27;20031;-61
2023/09/18 01:50:13;;;;;;;29.27;26.25;;;18.20;99.90;;;;;;5111054;27;20039;-62
2023/09/18 01:52:38;;;;;;;30.40;27.50;;;18.10;99.90;;;;;;5127872;27;20379;-61
2023/09/18 01:55:05;;;;;;;29.48;26.48;;;18.20;99.90;;;;;;5127545;27;20027;-62
2023/09/18 01:57:30;;;;;;;30.50;27.42;;;18.40;99.90;;;;;;5127548;27;20061;-61
2023/09/18 01:59:56;;;;;;;31.15;28.05;;;18.40;99.90;;;;;;5107744;27;20554;-61
2023/09/18 02:02:22;;;;;;;30.38;27.40;;;18.30;99.90;;;;;;5107065;27;20114;-62
2023/09/18 02:04:48;;;;;;;31.00;27.98;;;18.20;99.90;;;;;;5127201;27;20059;-62
2023/09/18 02:07:13;;;;;;;29.83;26.92;;;18.20;99.90;;;;;;5127746;27;20075;-61
2023/09/18 02:09:39;;;;;;;30.85;27.42;;;18.40;99.90;;;;;;5127196;27;20103;-62
2023/09/18 02:12:05;;;;;;;30.25;27.25;;;18.10;99.90;;;;;;5127370;27;20030;-61
2023/09/18 02:14:31;;;;;;;29.42;26.42;;;18.40;99.90;;;;;;5127107;27;20461;-61
2023/09/18 02:16:57;;;;;;;29.83;26.77;;;18.20;99.90;;;;;;5126910;27;20059;-61
2023/09/18 02:19:23;;;;;;;33.08;29.60;;;18.10;99.90;;;;;;5126877;27;20084;-61
2023/09/18 02:21:48;;;;;;;30.83;27.80;;;18.40;99.90;;;;;;5127258;27;20039;-62
2023/09/18 02:24:14;;;;;;;31.13;28.02;;;18.30;99.90;;;;;;5126915;27;20454;-61
2023/09/18 02:26:40;;;;;;;31.85;26.88;;;18.20;99.90;;;;;;5126953;27;20108;-61
2023/09/18 02:29:10;;;;;;;29.85;26.92;;;18.10;99.90;;;;;;5126565;27;20035;-61
2023/09/18 02:31:35;;;;;;;30.13;27.05;;;18.30;99.90;;;;;;5126797;27;20041;-62
2023/09/18 02:34:01;;;;;;;29.13;26.33;;;18.30;99.90;;;;;;5127073;27;20416;-62
2023/09/18 02:36:27;;;;;;;29.80;26.77;;;18.20;99.90;;;;;;5108516;27;20035;-62
2023/09/18 02:38:52;;;;;;;29.02;26.17;;;18.20;99.90;;;;;;5126857;27;20114;-61
2023/09/18 02:41:18;;;;;;;28.80;25.90;;;18.20;99.90;;;;;;5108125;27;20031;-60
2023/09/18 02:43:43;;;;;;;29.23;26.25;;;18.20;99.90;;;;;;5110878;27;20037;-60
2023/09/18 02:46:09;;;;;;;28.77;25.98;;;18.50;99.90;;;;;;5125331;27;20035;-61
2023/09/18 02:48:35;;;;;;;29.25;26.17;;;18.20;99.90;;;;;;5125756;27;20125;-61
2023/09/18 02:51:02;;;;;;;30.23;26.92;;;18.40;99.90;;;;;;5125321;27;20538;-60
2023/09/18 02:53:27;;;;;;;30.00;26.92;;;18.40;99.90;;;;;;5125974;27;20038;-61
2023/09/18 02:55:55;;;;;;;29.83;26.77;;;18.30;99.90;;;;;;5107225;27;20059;-61
2023/09/18 02:58:22;;;;;;;30.45;27.27;;;18.30;99.90;;;;;;5126218;27;20092;-61
2023/09/18 03:00:50;;;;;;;29.27;26.38;;;18.40;99.90;;;;;;5125739;27;20134;-61
2023/09/18 03:03:16;;;;;;;28.98;26.05;;;18.20;99.90;;;;;;5107996;27;20054;-61
2023/09/18 03:05:44;;;;;;;30.50;27.45;;;18.40;99.90;;;;;;5125955;27;20050;-61
2023/09/18 03:08:11;;;;;;;31.50;28.33;;;18.20;99.90;;;;;;5125668;27;20062;-61
2023/09/18 03:10:42;;;;;;;30.80;27.70;;;18.50;99.90;;;;;;5107992;27;20067;-61
2023/09/18 03:13:09;;;;;;;30.60;27.40;;;18.30;99.90;;;;;;5126238;27;20031;-61
2023/09/18 03:15:35;;;;;;;29.98;26.73;;;18.40;99.90;;;;;;5125607;27;20027;-60
2023/09/18 03:18:02;;;;;;;29.70;26.73;;;18.40;99.90;;;;;;5125597;27;20495;-60
2023/09/18 03:20:29;;;;;;;32.75;29.33;;;18.30;99.90;;;;;;5125481;27;20043;-61
2023/09/18 03:22:57;;;;;;;30.95;27.85;;;18.30;99.90;;;;;;5125857;27;20031;-61
2023/09/18 03:25:24;;;;;;;30.33;27.25;;;18.30;99.90;;;;;;5125781;27;20117;-61
2023/09/18 03:27:57;;;;;;;29.92;26.83;;;18.50;99.90;;;;;;5125472;27;20027;-60
2023/09/18 03:30:24;;;;;;;31.17;28.10;;;18.20;99.90;;;;;;5125069;27;20170;-61
2023/09/18 03:32:50;;;;;;;31.10;27.73;;;18.50;99.90;;;;;;5125709;27;20055;-61
2023/09/18 03:35:19;;;;;;;32.45;28.52;;;18.50;99.90;;;;;;5125508;27;20039;-61
2023/09/18 03:37:49;;;;;;;31.08;27.80;;;18.30;99.90;;;;;;5125214;27;20096;-60
2023/09/18 03:40:16;;;;;;;30.90;27.63;;;18.30;99.90;;;;;;5125029;27;20033;-61
2023/09/18 03:42:42;;;;;;;30.63;27.50;;;18.20;99.90;;;;;;5125191;27;20051;-61
2023/09/18 03:45:09;;;;;;;30.65;27.48;;;18.20;99.90;;;;;;5125939;27;20041;-61
2023/09/18 03:47:39;;;;;;;30.10;27.05;;;18.20;99.90;;;;;;5124821;27;20041;-61
2023/09/18 03:50:09;;;;;;;29.05;26.13;;;18.40;99.90;;;;;;5124273;27;20035;-61
2023/09/18 03:52:35;;;;;;;29.30;26.17;;;18.20;99.90;;;;;;5105374;27;20043;-61
2023/09/18 03:55:01;;;;;;;29.48;26.40;;;18.40;99.90;;;;;;5125161;27;20027;-60
2023/09/18 03:57:27;;;;;;;29.38;26.15;;;18.50;99.90;;;;;;5124609;27;20050;-61
2023/09/18 03:59:53;;;;;;;27.02;24.25;;;18.50;99.90;;;;;;5106792;27;20494;-61
2023/09/18 04:02:18;;;;;;;26.92;24.15;;;18.30;99.90;;;;;;5124924;27;20503;-61
2023/09/18 04:04:44;;;;;;;27.48;24.50;;;18.20;99.90;;;;;;5106715;27;20061;-61
2023/09/18 04:07:11;;;;;;;26.33;23.52;;;18.50;99.90;;;;;;5124004;27;20322;-61
2023/09/18 04:09:37;;;;;;;26.80;23.92;;;18.50;99.90;;;;;;5124576;27;20068;-61
2023/09/18 04:12:05;;;;;;;26.80;24.00;;;18.40;99.90;;;;;;5124375;27;20026;-61
2023/09/18 04:14:32;;;;;;;27.27;24.35;;;18.50;99.90;;;;;;5124940;27;20035;-60
2023/09/18 04:16:57;;;;;;;25.50;22.50;;;18.30;99.90;;;;;;5124275;27;20073;-61
2023/09/18 04:19:23;;;;;;;27.77;23.15;;;18.20;99.90;;;;;;5124452;27;20522;-61
2023/09/18 04:21:49;;;;;;;25.70;23.00;;;18.40;99.90;;;;;;5125279;27;20039;-61
2023/09/18 04:24:15;;;;;;;25.55;22.00;;;18.30;99.90;;;;;;5124766;27;20082;-60
2023/09/18 04:26:40;;;;;;;25.85;22.38;;;18.40;99.90;;;;;;5124362;27;20027;-61
2023/09/18 04:29:06;;;;;;;23.73;21.30;;;18.60;99.90;;;;;;5123631;27;20039;-61
2023/09/18 04:31:32;;;;;;;22.38;20.05;;;18.50;99.90;;;;;;5124931;27;20114;-61
2023/09/18 04:33:58;;;;;;;23.83;21.33;;;18.40;99.90;;;;;;5124513;27;20035;-59
2023/09/18 04:36:24;;;;;;;23.23;20.80;;;18.50;99.90;;;;;;5124247;27;20023;-61
2023/09/18 04:38:50;;;;;;;22.90;20.63;;;18.50;99.90;;;;;;5123858;27;20438;-61
2023/09/18 04:41:16;;;;;;;22.48;20.13;;;18.40;99.90;;;;;;5124184;27;20474;-61
2023/09/18 04:43:45;;;;;;;23.48;20.42;;;18.30;99.90;;;;;;5124465;27;20047;-61
2023/09/18 04:46:10;;;;;;;23.15;20.10;;;18.30;99.90;;;;;;5124062;27;20478;-61
2023/09/18 04:48:36;;;;;;;22.00;19.45;;;18.30;99.90;;;;;;5123733;27;20099;-61
2023/09/18 04:51:06;;;;;;;22.85;18.83;;;18.30;99.90;;;;;;5104967;27;20389;-62
2023/09/18 04:53:32;;;;;;;22.77;20.48;;;18.60;99.90;;;;;;5124229;27;20070;-61
2023/09/18 04:55:58;;;;;;;21.60;17.92;;;18.40;99.90;;;;;;5122930;27;20035;-62
2023/09/18 04:58:24;;;;;;;23.25;18.67;;;18.40;99.90;;;;;;5123980;27;20402;-61
2023/09/18 05:00:57;;;;;;;20.38;18.20;;;18.60;99.90;;;;;;5124014;27;20490;-61
2023/09/18 05:03:22;;;;;;;20.70;17.92;;;18.30;99.90;;;;;;5123139;27;20050;-61
2023/09/18 05:05:48;;;;;;;20.48;18.23;;;18.70;99.90;;;;;;5124027;27;20505;-62
2023/09/18 05:08:14;;;;;;;23.15;18.02;;;18.50;99.90;;;;;;5104921;27;20041;-61
2023/09/18 05:10:40;;;;;;;20.83;18.42;;;18.60;99.90;;;;;;5123763;27;20027;-61
2023/09/18 05:13:06;;;;;;;21.90;18.25;;;18.60;99.90;;;;;;5123909;27;20031;-61
2023/09/18 05:15:33;;;;;;;19.48;17.48;;;18.80;99.90;;;;;;5123795;27;20114;-61
2023/09/18 05:17:59;;;;;;;18.88;16.88;;;18.70;99.90;;;;;;5123135;27;20035;-61
2023/09/18 05:20:27;;;;;;;20.98;17.50;;;18.80;99.90;;;;;;5123616;27;20039;-60
2023/09/18 05:22:54;;;;;;;20.08;17.10;;;18.50;99.90;;;;;;5124176;27;20046;-61
2023/09/18 05:25:24;;;;;;;20.45;18.40;;;18.50;99.90;;;;;;5123598;28;20042;-61
2023/09/18 05:27:55;;;;;;;19.55;17.55;;;18.60;99.90;;;;;;5123767;28;20427;-60
2023/09/18 05:30:30;;;;;;;19.38;16.90;;;18.50;99.90;;;;;;5123132;28;20039;-61
2023/09/18 05:32:57;;;;;;;20.55;18.23;;;18.70;99.90;;;;;;5123770;28;20054;-61
2023/09/18 05:35:23;;;;;;;19.10;17.10;;;18.60;99.90;;;;;;5106648;28;20035;-61
2023/09/18 05:37:51;;;;;;;19.27;16.50;;;18.70;99.90;;;;;;5123223;28;20029;-61
2023/09/18 05:40:17;;;;;;;20.40;15.77;;;18.50;99.90;;;;;;5123527;28;20043;-60
2023/09/18 05:42:43;;;;;;;18.38;15.80;;;18.60;99.90;;;;;;5123595;28;20498;-61
2023/09/18 05:45:11;;;;;;;18.23;16.40;;;18.90;99.90;;;;;;5123651;28;20039;-60
2023/09/18 05:47:38;;;;;;;18.80;16.70;;;18.60;99.90;;;;;;5104339;28;20035;-61
2023/09/18 05:50:16;;;;;;;22.40;18.48;;;18.90;99.90;;;;;;5123402;28;20074;-62
2023/09/18 05:52:51;;;;;;;19.83;17.50;;;18.80;99.90;;;;;;5123418;28;20039;-61
2023/09/18 05:55:17;;;;;;;19.85;17.75;;;18.80;99.90;;;;;;5123604;28;20041;-61
2023/09/18 05:57:43;;;;;;;21.83;18.20;;;18.60;99.90;;;;;;5122769;28;20506;-62
2023/09/18 06:00:12;;;;;;;21.50;18.27;;;18.80;99.90;;;;;;5123064;28;20534;-61
2023/09/18 06:02:39;;;;;;;21.08;18.83;;;18.60;99.90;;;;;;5123192;28;20047;-61
2023/09/18 06:05:06;;;;;;;24.13;19.23;;;18.70;99.90;;;;;;5104903;28;20068;-62
2023/09/18 06:07:32;;;;;;;22.85;19.73;;;18.90;99.90;;;;;;5123170;28;20043;-61
2023/09/18 06:09:59;;;;;;;21.40;19.10;;;18.90;99.90;;;;;;5122408;28;20460;-62
2023/09/18 06:12:25;;;;;;;21.88;19.30;;;18.90;99.90;;;;;;5123468;28;20100;-61
2023/09/18 06:14:51;;;;;;;22.42;18.30;;;18.80;99.90;;;;;;5107791;27;20042;-62
2023/09/18 06:17:17;;;;;;;23.02;19.15;;;18.70;99.90;;;;;;5126721;27;20043;-61
2023/09/18 06:19:45;;;;;;;22.40;18.67;;;18.70;99.90;;;;;;5126829;27;20098;-61
2023/09/18 06:22:12;;;;;;;23.30;19.25;;;18.90;99.90;;;;;;5127476;27;20043;-62
2023/09/18 06:24:37;;;;;;;24.50;18.55;;;18.90;99.90;;;;;;5126815;27;20050;-62
2023/09/18 06:27:06;;;;;;;21.88;19.00;;;19.00;99.90;;;;;;5126959;27;20039;-62
2023/09/18 06:29:33;;;;;;;24.33;18.67;;;19.00;99.90;;;;;;5126564;27;20042;-61
2023/09/18 06:31:59;;;;;;;24.70;17.90;;;18.80;99.90;;;;;;5126531;27;20546;-61
2023/09/18 06:34:25;;;;;;;24.50;19.23;;;19.10;99.90;;;;;;5126004;27;20031;-61
2023/09/18 06:36:51;;;;;;;26.75;20.40;;;19.00;99.90;;;;;;5126753;27;20478;-62
2023/09/18 06:39:17;;;;;;;24.75;19.40;;;18.90;99.90;;;;;;5127259;27;20042;-62
2023/09/18 06:41:42;;;;;;;27.95;20.45;;;18.80;99.90;;;;;;5126895;27;20103;-60
2023/09/18 06:44:08;;;;;;;27.55;23.10;;;18.90;99.90;;;;;;5127093;27;20039;-61
2023/09/18 06:46:34;;;;;;;36.42;24.52;;;19.20;99.90;;;;;;5126757;27;20035;-58
2023/09/18 06:49:00;;;;;;;31.75;25.90;;;18.90;99.90;;;;;;5107691;27;20428;-59
2023/09/18 06:51:29;;;;;;;34.70;27.58;;;19.10;99.90;;;;;;5126306;27;20041;-60
2023/09/18 06:53:57;;;;;;;36.83;28.50;;;18.90;99.90;;;;;;5124870;27;21203;-61
2023/09/18 06:56:25;;;;;;;37.55;30.05;;;19.20;99.90;;;;;;5125357;27;20054;-59
2023/09/18 06:58:51;;;;;;;39.88;29.15;;;19.10;99.90;;;;;;5125015;27;20047;-60
2023/09/18 07:01:20;;;;;;;36.85;28.40;;;18.70;99.90;;;;;;5108181;27;20043;-60
2023/09/18 07:03:47;;;;;;;37.03;29.52;;;18.80;99.90;;;;;;5125875;27;20258;-60
2023/09/18 07:06:15;;;;;;;36.28;29.10;;;18.90;99.90;;;;;;5125018;27;20061;-60
2023/09/18 07:08:44;;;;;;;36.65;28.60;;;18.90;99.90;;;;;;5126110;27;20031;-59
2023/09/18 07:11:11;;;;;;;38.47;30.52;;;18.70;99.90;;;;;;5126123;27;20035;-60
2023/09/18 07:13:37;;;;;;;32.63;26.17;;;19.20;99.90;;;;;;5126028;27;20035;-60
2023/09/18 07:16:03;;;;;;;30.77;22.77;;;19.00;99.90;;;;;;5126327;27;20386;-60
2023/09/18 07:18:29;;;;;;;29.35;22.40;;;18.90;99.90;;;;;;5107028;27;20700;-59
2023/09/18 07:20:55;;;;;;;25.42;21.05;;;19.20;99.90;;;;;;5125448;27;20027;-62
2023/09/18 07:23:20;;;;;;;22.58;19.75;;;19.30;99.90;;;;;;5125190;27;20035;-61
2023/09/18 07:25:49;;;;;;;24.48;18.45;;;19.20;99.90;;;;;;5125149;27;20028;-61
2023/09/18 07:28:17;;;;;;;24.30;18.25;;;18.90;99.90;;;;;;5125333;27;20275;-61
2023/09/18 07:30:47;;;;;;;20.75;17.33;;;18.90;99.90;;;;;;5125542;27;20477;-61
2023/09/18 07:33:17;;;;;;;23.30;17.35;;;19.20;99.90;;;;;;5125393;27;20042;-61
2023/09/18 07:35:51;;;;;;;21.85;17.80;;;19.30;99.90;;;;;;5125739;27;20482;-61
2023/09/18 07:38:18;;;;;;;;;;;19.20;99.90;;;;;;5126066;27;20035;-61
2023/09/18 07:40:45;;;;;;;21.00;17.85;;;19.30;99.90;;;;;;5124810;27;19926;-60
2023/09/18 07:43:11;;;;;;;25.10;19.27;;;19.10;99.90;;;;;;5125871;27;20159;-61
2023/09/18 07:45:39;;;;;;;26.88;22.05;;;19.40;99.90;;;;;;5125195;27;20529;-61
2023/09/18 07:48:06;;;;;;;28.27;23.50;;;18.90;99.90;;;;;;5124704;27;20085;-61
2023/09/18 07:50:33;;;;;;;29.60;24.27;;;19.10;99.90;;;;;;5125229;27;20047;-61
2023/09/18 07:52:59;;;;;;;30.60;24.30;;;19.30;99.90;;;;;;5106741;27;20077;-60
2023/09/18 07:55:25;;;;;;;29.02;24.15;;;19.10;99.90;;;;;;5125581;27;20031;-61
2023/09/18 07:57:51;;;;;;;31.63;24.70;;;19.50;99.90;;;;;;5124506;27;20057;-61
2023/09/18 08:00:18;;;;;;;31.52;25.20;;;19.30;99.90;;;;;;5125478;27;20410;-60
2023/09/18 08:02:44;;;;;;;30.73;24.35;;;19.10;99.90;;;;;;5124534;27;20083;-60
2023/09/18 08:05:10;;;;;;;28.60;23.60;;;19.50;99.90;;;;;;5124680;27;20482;-61
2023/09/18 08:07:36;;;;;;;29.23;24.52;;;19.40;99.90;;;;;;5106784;27;20030;-62
2023/09/18 08:10:06;;;;;;;29.10;24.15;;;19.00;99.90;;;;;;5124988;27;20570;-61
2023/09/18 08:12:32;;;;;;;25.52;21.75;;;19.10;99.90;;;;;;5106171;27;20035;-62
2023/09/18 08:14:58;;;;;;;35.28;21.73;;;19.20;99.90;;;;;;5106159;27;20019;-61
2023/09/18 08:17:25;;;;;;;24.20;21.25;;;19.40;99.90;;;;;;5124638;27;20042;-61
2023/09/18 08:19:54;;;;;;;24.73;20.02;;;19.50;99.90;;;;;;5105687;27;20095;-61
2023/09/18 08:22:21;;;;;;;22.77;18.27;;;19.20;99.90;;;;;;5124898;27;20058;-61
2023/09/18 08:24:52;;;;;;;22.55;17.92;;;19.60;99.90;;;;;;5124215;27;20035;-63
2023/09/18 08:27:19;;;;;;;19.60;17.52;;;19.50;99.90;;;;;;5105885;27;20051;-62
2023/09/18 08:29:45;;;;;;;19.88;17.02;;;19.70;99.90;;;;;;5124158;27;20043;-61
2023/09/18 08:32:11;;;;;;;21.15;17.98;;;19.30;99.90;;;;;;5124222;27;20038;-61
2023/09/18 08:34:37;;;;;;;20.10;17.17;;;19.60;99.90;;;;;;5105537;27;20027;-62
2023/09/18 08:37:03;;;;;;;22.33;17.70;;;19.80;99.90;;;;;;5124805;27;20035;-61
2023/09/18 08:39:31;;;;;;;23.60;19.17;;;19.40;99.90;;;;;;5124337;27;20031;-61
2023/09/18 08:42:03;;;;;;;20.88;18.60;;;19.80;99.90;;;;;;5124104;27;20123;-61
2023/09/18 08:44:30;;;;;;;22.88;19.83;;;19.70;99.90;;;;;;5124730;27;20125;-61
2023/09/18 08:46:56;;;;;;;20.60;17.88;;;19.40;99.90;;;;;;5105856;27;20042;-61
2023/09/18 08:49:26;;;;;;;23.88;19.00;;;19.50;99.90;;;;;;5124154;27;20053;-61
2023/09/18 08:51:54;;;;;;;23.23;20.33;;;19.50;99.90;;;;;;5124445;27;20027;-61
2023/09/18 08:54:21;;;;;;;21.67;19.40;;;19.50;99.90;;;;;;5123741;27;20032;-61
2023/09/18 08:56:47;;;;;;;26.13;20.50;;;20.10;99.90;;;;;;5123442;27;20055;-61
2023/09/18 08:59:13;;;;;;;21.73;19.33;;;19.60;99.90;;;;;;5103804;27;20069;-61
2023/09/18 09:01:39;;;;;;;22.67;20.25;;;19.90;99.90;;;;;;5124330;27;20163;-61
2023/09/18 09:04:05;;;;;;;23.55;21.02;;;19.70;99.90;;;;;;5124496;27;20450;-61
2023/09/18 09:06:31;;;;;;;20.75;18.52;;;19.70;99.90;;;;;;5124365;27;20151;-61
2023/09/18 09:08:57;;;;;;;21.67;19.40;;;20.20;99.90;;;;;;5106060;27;20474;-61
2023/09/18 09:11:23;;;;;;;20.30;17.95;;;20.30;99.90;;;;;;5123520;27;20371;-60
2023/09/18 09:14:15;;;;;;;20.63;17.45;;;20.40;99.90;;;;;;5106993;27;20439;-61
2023/09/18 09:16:46;;;;;;;19.52;17.50;;;20.10;99.90;;;;;;5123398;27;20038;-61
2023/09/18 09:19:12;;;;;;;18.63;16.13;;;20.40;99.90;;;;;;5123757;27;20035;-63
2023/09/18 09:21:39;;;;;;;16.95;15.27;;;20.20;99.90;;;;;;5088472;28;20043;-63
2023/09/18 09:24:05;;;;;;;17.15;15.00;;;20.40;99.90;;;;;;5123456;27;20023;-61
2023/09/18 09:26:31;;;;;;;16.40;14.70;;;20.10;99.90;;;;;;5105004;28;20042;-60
2023/09/18 09:28:56;;;;;;;16.30;14.60;;;20.10;99.90;;;;;;5106837;28;20043;-61
2023/09/18 09:31:28;;;;;;;16.23;14.45;;;20.20;99.90;;;;;;5123899;28;20391;-61
2023/09/18 09:33:55;;;;;;;14.32;12.90;;;20.30;99.90;;;;;;5123508;28;20172;-62
2023/09/18 09:36:21;;;;;;;13.43;12.10;;;20.40;99.90;;;;;;5124047;28;20065;-62
2023/09/18 09:38:47;;;;;;;14.23;12.60;;;20.80;99.90;;;;;;5105087;28;20489;-61
2023/09/18 09:41:17;;;;;;;18.05;12.70;;;20.90;99.90;;;;;;5106818;28;20043;-62
2023/09/18 09:43:46;;;;;;;13.27;11.57;;;20.60;99.90;;;;;;5122926;28;20043;-61
2023/09/18 09:46:17;;;;;;;13.13;11.73;;;20.80;99.90;;;;;;5104952;28;20481;-61
2023/09/18 09:49:03;;;;;;;13.23;11.63;;;20.70;99.90;;;;;;5123128;27;20304;-63
2023/09/18 09:51:29;;;;;;;13.18;10.27;;;21.10;99.90;;;;;;5127559;27;20045;-61
2023/09/18 09:53:58;;;;;;;12.75;9.75;;;20.80;99.90;;;;;;5127181;27;20035;-61
2023/09/18 09:56:50;;;;;;;12.85;11.02;;;21.00;99.90;;;;;;5127172;27;20115;-61
2023/09/18 09:59:19;;;;;;;12.82;10.40;;;20.80;99.90;;;;;;5126754;27;20054;-62
2023/09/18 10:01:50;;;;;;;10.63;9.43;;;21.00;99.90;;;;;;5127053;27;20150;-62
2023/09/18 10:04:18;;;;;;;10.88;9.77;;;21.00;99.90;;;;;;5127559;27;20173;-61
2023/09/18 10:06:47;;;;;;;12.75;10.10;;;21.10;99.90;;;;;;5127565;27;20041;-62
2023/09/18 10:09:15;;;;;;;11.55;10.25;;;20.90;99.90;;;;;;5127114;27;20047;-61
2023/09/18 10:11:44;;;;;;;13.68;10.38;;;21.20;99.90;;;;;;5127338;27;20035;-62
2023/09/18 10:14:17;;;;;;;12.07;9.32;;;21.10;99.90;;;;;;5127235;27;20035;-62
2023/09/18 10:16:52;;;;;;;9.68;7.95;;;21.20;99.90;;;;;;5127025;27;20069;-62
2023/09/18 10:19:51;;;;;;;9.32;8.05;;;21.40;99.90;;;;;;5126811;27;20039;-62
2023/09/18 10:22:37;;;;;;;10.98;8.30;;;21.20;99.90;;;;;;5117715;27;20084;-62
2023/09/18 10:25:23;;;;;;;10.45;7.20;;;21.40;99.90;;;;;;5126967;27;20053;-60
2023/09/18 10:27:54;;;;;;;8.43;7.22;;;21.40;99.90;;;;;;5091364;27;20035;-62
2023/09/18 10:30:22;;;;;;;8.27;6.25;;;21.60;99.90;;;;;;5127608;27;20042;-62
2023/09/18 10:32:50;;;;;;;9.73;7.50;;;21.70;99.90;;;;;;5126822;27;20039;-61
2023/09/18 10:35:16;;;;;;;8.48;7.05;;;21.60;99.90;;;;;;5127524;27;20142;-62
2023/09/18 10:37:45;;;;;;;9.80;7.03;;;21.70;99.90;;;;;;5126967;27;20035;-62
2023/09/18 10:40:11;;;;;;;11.48;7.20;;;21.60;99.90;;;;;;5126214;27;20039;-61
2023/09/18 10:42:41;;;;;;;7.80;7.00;;;21.50;99.90;;;;;;5108134;27;20125;-62
2023/09/18 10:45:11;;;;;;;8.55;6.40;;;21.60;99.90;;;;;;5127210;27;20047;-62
2023/09/18 10:47:43;;;;;;;8.75;6.28;;;21.50;99.90;;;;;;5125653;27;20458;-62
2023/09/18 10:50:09;;;;;;;9.15;5.90;;;21.60;99.90;;;;;;5126551;27;20042;-61
2023/09/18 10:52:38;;;;;;;7.85;5.90;;;21.70;99.90;;;;;;5126006;27;20118;-61
2023/09/18 10:55:04;;;;;;;7.80;5.75;;;21.80;99.90;;;;;;5126253;27;20489;-60
2023/09/18 10:57:35;;;;;;;9.40;5.65;;;21.90;99.90;;;;;;5107521;27;20066;-61
2023/09/18 11:00:13;;;;;;;6.30;4.65;;;21.80;99.90;;;;;;5125078;27;20397;-62
2023/09/18 11:02:40;;;;;;;7.70;5.00;;;21.70;99.90;;;;;;5107037;27;20065;-62
2023/09/18 11:05:06;;;;;;;9.85;6.15;;;21.60;99.90;;;;;;5125270;27;20450;-61
2023/09/18 11:07:32;;;;;;;8.13;6.45;;;21.30;99.90;;;;;;5125180;27;20163;-61
2023/09/18 11:09:58;;;;;;;8.32;6.45;;;21.20;99.90;;;;;;5125067;27;20070;-61
2023/09/18 11:12:43;;;;;;;9.07;7.25;;;21.00;99.90;;;;;;5125219;27;20062;-61
2023/09/18 11:15:10;;;;;;;8.85;7.28;;;20.90;99.90;;;;;;5126447;27;20023;-61
2023/09/18 11:17:36;;;;;;;7.63;6.78;;;20.80;99.90;;;;;;5125859;27;20828;-60
2023/09/18 11:20:25;;;;;;;8.20;6.15;;;20.90;99.90;;;;;;5126514;27;20035;-61
2023/09/18 11:23:30;;;;;;;9.82;6.60;;;21.00;99.90;;;;;;5125997;27;20112;-61
2023/09/18 11:25:56;;;;;;;8.30;6.60;;;21.30;99.90;;;;;;5126178;27;20028;-62
2023/09/18 11:28:26;;;;;;;7.43;6.03;;;21.60;99.90;;;;;;5107628;27;20039;-61
2023/09/18 11:31:03;;;;;;;10.00;5.28;;;22.10;99.90;;;;;;5125857;27;20080;-60
2023/09/18 11:33:35;;;;;;;6.88;4.70;;;22.30;99.90;;;;;;5106980;27;20054;-62
2023/09/18 11:36:14;;;;;;;7.85;5.15;;;22.30;99.90;;;;;;5107475;27;20110;-62
2023/09/18 11:38:56;;;;;;;8.05;5.30;;;22.30;99.90;;;;;;5124974;27;21490;-62
2023/09/18 11:41:27;;;;;;;8.50;5.07;;;22.10;99.90;;;;;;5105968;27;20073;-61
2023/09/18 11:44:19;;;;;;;8.15;4.75;;;22.10;99.90;;;;;;5124809;27;20039;-62
2023/09/18 11:46:52;;;;;;;9.10;5.40;;;22.10;99.90;;;;;;5125122;27;20043;-61
2023/09/18 11:49:22;;;;;;;7.63;4.78;;;22.10;99.90;;;;;;5125228;27;20043;-61
2023/09/18 11:51:50;;;;;;;6.85;5.07;;;22.30;99.90;;;;;;5106860;27;20424;-62
2023/09/18 11:54:17;;;;;;;7.60;5.07;;;22.50;99.90;;;;;;5106385;27;20038;-62
2023/09/18 11:56:43;;;;;;;6.45;5.28;;;22.60;99.90;;;;;;5125136;27;20047;-62
2023/09/18 11:59:10;;;;;;;8.38;5.20;;;22.50;99.90;;;;;;5124702;27;20051;-61
2023/09/18 12:01:36;;;;;;;13.05;5.28;;;22.60;99.90;;;;;;5106451;27;20041;-62
2023/09/18 12:04:13;;;;;;;12.57;5.05;;;22.70;99.90;;;;;;5124659;27;20080;-62
2023/09/18 12:06:40;;;;;;;7.88;5.40;;;22.60;99.90;;;;;;5125105;27;20039;-62
2023/09/18 12:09:09;;;;;;;7.88;5.22;;;22.60;99.90;;;;;;5124967;27;20065;-62
2023/09/18 12:11:35;;;;;;;6.82;4.78;;;22.80;99.90;;;;;;5124913;27;20027;-62
2023/09/18 12:14:02;;;;;;;5.63;4.15;;;23.00;99.90;;;;;;5124655;27;20034;-61
2023/09/18 12:16:28;;;;;;;5.80;4.55;;;23.20;99.90;;;;;;5124716;27;20023;-61
2023/09/18 12:18:54;;;;;;;6.22;4.70;;;23.20;99.90;;;;;;5124127;27;20042;-61
2023/09/18 12:21:19;;;;;;;7.45;4.32;;;23.10;99.90;;;;;;5125473;27;20053;-62
2023/09/18 12:23:46;;;;;;;5.32;3.60;;;23.20;99.90;;;;;;5124561;27;20043;-62
2023/09/18 12:26:13;;;;;;;7.50;3.97;;;23.40;99.90;;;;;;5124789;27;20027;-62
2023/09/18 12:28:43;;;;;;;4.90;3.45;;;23.80;99.90;;;;;;5124041;27;20101;-63
2023/09/18 12:31:13;;;;;;;7.18;3.85;;;24.10;99.90;;;;;;5124585;27;20026;-62
2023/09/18 12:33:40;;;;;;;8.07;3.90;;;24.30;99.90;;;;;;5124677;27;20030;-61